createdAt,value
2019-05-09T00:00:37.708Z,1.17
2019-05-09T00:04:43.886Z,1.00
2019-05-09T00:08:47.426Z,1.07
2019-05-09T00:12:53.887Z,1.10
2019-05-09T00:16:57.276Z,1.40
2019-05-09T00:21:08.826Z,1.00
2019-05-09T00:25:13.258Z,1.17
2019-05-09T00:29:24.367Z,1.00
2019-05-09T00:33:29.799Z,1.10
2019-05-09T00:37:53.596Z,1.20
2019-05-09T00:41:57.880Z,1.00
2019-05-09T00:46:23.534Z,1.10
2019-05-09T00:50:29.517Z,1.10
2019-05-09T00:54:33.483Z,1.10
2019-05-09T00:58:38.607Z,1.13
2019-05-09T01:02:43.504Z,1.30
2019-05-09T01:06:47.717Z,1.20
2019-05-09T01:10:53.022Z,0.93
2019-05-09T01:14:57.725Z,1.17
2019-05-09T01:19:03.617Z,1.10
2019-05-09T01:23:08.420Z,1.10
2019-05-09T01:27:14.229Z,1.13
2019-05-09T01:31:18.194Z,1.07
2019-05-09T01:35:23.310Z,1.33
2019-05-09T01:39:27.451Z,1.10
2019-05-09T01:43:33.669Z,1.03
2019-05-09T01:47:37.228Z,1.03
2019-05-09T01:51:41.304Z,1.00
2019-05-09T01:56:00.642Z,0.90
2019-05-09T02:00:04.788Z,0.93
2019-05-09T02:04:08.974Z,1.07
2019-05-09T02:08:14.259Z,1.10
2019-05-09T02:12:18.429Z,1.10
2019-05-09T02:16:33.965Z,0.90
2019-05-09T02:20:39.048Z,0.90
2019-05-09T02:24:44.046Z,1.07
2019-05-09T02:28:48.016Z,0.97
2019-05-09T02:32:54.740Z,1.03
2019-05-09T02:36:58.921Z,1.20
2019-05-09T02:41:02.973Z,1.00
2019-05-09T02:45:08.307Z,1.10
2019-05-09T02:49:12.660Z,0.90
2019-05-09T02:53:18.889Z,1.10
2019-05-09T02:57:24.847Z,0.90
2019-05-09T03:01:42.812Z,0.90
2019-05-09T03:05:48.723Z,1.10
2019-05-09T03:09:52.996Z,1.13
2019-05-09T03:13:58.641Z,1.20
2019-05-09T03:18:02.875Z,1.03
2019-05-09T03:22:12.157Z,1.10
2019-05-09T03:26:19.719Z,1.10
2019-05-09T03:30:29.092Z,1.00
2019-05-09T03:34:33.317Z,0.83
2019-05-09T03:38:37.784Z,1.00
2019-05-09T03:42:43.760Z,1.07
2019-05-09T03:47:08.413Z,0.90
2019-05-09T03:51:12.491Z,1.00
2019-05-09T03:55:20.507Z,1.00
2019-05-09T04:03:59.987Z,1.03
2019-05-09T04:08:19.785Z,0.97
2019-05-09T04:12:24.583Z,0.93
2019-05-09T04:16:28.793Z,0.90
2019-05-09T04:20:32.911Z,0.90
2019-05-09T04:24:38.232Z,0.97
2019-05-09T04:28:42.243Z,1.00
2019-05-09T04:32:48.165Z,1.10
2019-05-09T04:36:52.468Z,0.80
2019-05-09T04:40:58.431Z,1.00
2019-05-09T04:45:10.254Z,0.80
2019-05-09T04:49:14.449Z,0.80
2019-05-09T04:53:18.565Z,0.80
2019-05-09T04:57:23.641Z,0.77
2019-05-09T05:01:47.744Z,0.70
2019-05-09T05:05:51.888Z,0.77
2019-05-09T05:09:57.634Z,0.60
2019-05-09T05:14:01.826Z,0.60
2019-05-09T05:18:06.001Z,0.63
2019-05-09T05:22:18.055Z,0.70
2019-05-09T05:26:21.608Z,0.70
2019-05-09T05:30:28.430Z,0.70
2019-05-09T05:34:37.869Z,0.70
2019-05-09T05:38:41.961Z,0.90
2019-05-09T05:42:47.764Z,0.80
2019-05-09T05:47:02.786Z,0.70
2019-05-09T05:51:08.123Z,0.60
2019-05-09T05:55:12.514Z,0.70
2019-05-09T05:59:17.875Z,0.70
2019-05-09T06:03:22.031Z,0.50
2019-05-09T06:07:28.312Z,0.90
2019-05-09T06:11:31.699Z,0.60
2019-05-09T06:15:37.943Z,0.57
2019-05-09T06:19:41.585Z,0.53
2019-05-09T06:23:48.094Z,0.50
2019-05-09T06:27:51.284Z,0.60
2019-05-09T06:31:55.342Z,0.50
2019-05-09T06:35:59.467Z,0.50
2019-05-09T06:40:03.723Z,0.40
2019-05-09T06:44:19.696Z,0.50
2019-05-09T06:48:20.482Z,0.80
2019-05-09T06:52:24.466Z,0.50
2019-05-09T06:56:28.820Z,0.40
2019-05-09T07:00:37.892Z,0.53
2019-05-09T07:04:47.945Z,0.40
2019-05-09T07:08:58.328Z,0.50
2019-05-09T07:13:01.640Z,0.70
2019-05-09T07:17:07.937Z,0.60
2019-05-09T07:21:11.385Z,0.40
2019-05-09T07:25:27.950Z,0.50
2019-05-09T07:29:32.473Z,0.43
2019-05-09T07:33:58.535Z,0.40
2019-05-09T07:38:01.732Z,0.40
2019-05-09T07:42:07.664Z,0.50
2019-05-09T07:46:14.678Z,0.60
2019-05-09T07:50:19.204Z,0.50
2019-05-09T07:54:25.659Z,0.60
2019-05-09T07:58:28.989Z,0.50
2019-05-09T08:02:33.070Z,0.60
2019-05-09T08:06:37.995Z,0.40
2019-05-09T08:10:42.251Z,0.50
2019-05-09T08:15:02.941Z,0.30
2019-05-09T08:18:52.078Z,0.43
2019-05-09T08:22:58.654Z,0.50
2019-05-09T08:27:01.832Z,0.40
2019-05-09T08:31:08.275Z,0.40
2019-05-09T08:35:11.542Z,0.40
2019-05-09T08:39:20.177Z,0.30
2019-05-09T08:43:22.508Z,0.30
2019-05-09T08:47:27.782Z,0.40
2019-05-09T08:51:47.309Z,0.30
2019-05-09T08:55:41.831Z,0.37
2019-05-09T08:59:48.136Z,0.30
2019-05-09T09:03:51.620Z,0.40
2019-05-09T09:07:57.826Z,0.37
2019-05-09T09:12:01.375Z,0.40
2019-05-09T09:16:18.132Z,0.40
2019-05-09T09:20:11.035Z,0.40
2019-05-09T09:24:15.159Z,0.40
2019-05-09T09:28:19.225Z,0.40
2019-05-09T09:32:23.311Z,1.60
2019-05-09T09:36:28.119Z,0.60
2019-05-09T09:40:32.213Z,0.37
2019-05-09T09:44:38.775Z,0.40
2019-05-09T09:48:42.084Z,0.40
2019-05-09T09:52:48.891Z,0.30
2019-05-09T09:56:53.533Z,0.40
2019-05-09T10:01:18.119Z,0.30
2019-05-09T10:05:22.251Z,0.40
2019-05-09T10:09:26.331Z,0.47
2019-05-09T10:13:30.502Z,0.40
2019-05-09T10:17:44.445Z,0.27
2019-05-09T10:21:51.543Z,0.27
2019-05-09T10:25:57.956Z,0.20
2019-05-09T10:30:01.269Z,0.30
2019-05-09T10:34:06.463Z,0.30
2019-05-09T10:38:10.447Z,0.40
2019-05-09T10:42:21.103Z,0.30
2019-05-09T10:46:51.391Z,0.30
2019-05-09T10:50:44.398Z,0.27
2019-05-09T10:54:46.038Z,0.20
2019-05-09T10:58:50.018Z,0.30
2019-05-09T11:02:54.029Z,0.27
2019-05-09T11:06:58.429Z,0.20
2019-05-09T11:11:05.867Z,0.30
2019-05-09T11:15:09.267Z,0.30
2019-05-09T11:19:13.448Z,0.30
2019-05-09T11:23:19.364Z,0.40
2019-05-09T11:27:23.296Z,0.47
2019-05-09T11:31:29.400Z,0.40
2019-05-09T11:35:33.549Z,0.30
2019-05-09T11:39:41.992Z,0.40
2019-05-09T11:43:43.491Z,0.30
2019-05-09T11:47:47.566Z,0.33
2019-05-09T11:51:51.767Z,0.47
2019-05-09T11:55:57.837Z,0.60
2019-05-09T12:00:01.584Z,0.60
2019-05-09T12:04:07.870Z,0.50
2019-05-09T12:08:11.368Z,0.60
2019-05-09T12:12:15.306Z,0.50
2019-05-09T12:16:19.344Z,0.50
2019-05-09T12:20:23.411Z,0.40
2019-05-09T12:24:29.583Z,0.30
2019-05-09T12:28:33.427Z,0.50
2019-05-09T12:32:38.546Z,0.87
2019-05-09T12:36:42.703Z,0.40
2019-05-09T12:40:48.205Z,0.47
2019-05-09T12:44:52.351Z,0.60
2019-05-09T12:48:59.053Z,0.60
2019-05-09T12:53:03.667Z,0.50
2019-05-09T12:57:08.119Z,0.40
2019-05-09T13:01:12.306Z,0.35
2019-05-09T13:05:18.138Z,0.40
2019-05-09T13:09:22.424Z,0.35
2019-05-09T13:13:30.258Z,0.70
2019-05-09T13:17:34.264Z,0.40
2019-05-09T13:21:39.167Z,0.65
2019-05-09T13:25:43.374Z,0.30
2019-05-09T13:29:49.250Z,0.70
2019-05-09T13:33:53.478Z,0.30
2019-05-09T13:37:59.751Z,0.30
2019-05-09T13:42:03.591Z,0.20
2019-05-09T13:46:08.993Z,0.50
2019-05-09T13:50:13.394Z,0.40
2019-05-09T13:54:18.526Z,0.30
2019-05-09T13:58:22.880Z,0.35
2019-05-09T14:02:29.188Z,0.30
2019-05-09T14:06:33.012Z,0.40
2019-05-09T14:10:38.732Z,0.60
2019-05-09T14:14:43.123Z,1.05
2019-05-09T14:18:48.522Z,0.65
2019-05-09T14:22:52.856Z,0.30
2019-05-09T14:26:58.257Z,1.25
2019-05-09T14:31:02.548Z,0.70
2019-05-09T14:35:08.598Z,0.98
2019-05-09T14:39:12.946Z,0.60
2019-05-09T14:43:18.534Z,0.80
2019-05-09T14:47:22.692Z,0.50
2019-05-09T14:51:28.411Z,0.78
2019-05-09T14:55:32.981Z,0.50
2019-05-09T14:59:38.352Z,0.90
2019-05-09T15:03:42.549Z,0.47
2019-05-09T15:07:47.614Z,0.80
2019-05-09T15:11:52.337Z,0.40
2019-05-09T15:15:57.869Z,0.70
2019-05-09T15:20:03.367Z,0.50
2019-05-09T15:24:09.392Z,0.70
2019-05-09T15:28:13.560Z,0.50
2019-05-09T15:32:18.402Z,0.47
2019-05-09T15:36:22.544Z,0.60
2019-05-09T15:40:28.225Z,0.40
2019-05-09T15:44:32.511Z,0.50
2019-05-09T15:48:38.124Z,0.50
2019-05-09T15:52:42.234Z,0.80
2019-05-09T15:56:48.337Z,3.40
2019-05-09T16:00:52.135Z,2.20
2019-05-09T16:04:58.390Z,5.20
2019-05-09T16:09:02.254Z,4.03
2019-05-09T16:13:08.162Z,1.10
2019-05-09T16:17:12.447Z,0.70
2019-05-09T16:21:17.859Z,0.50
2019-05-09T16:25:22.054Z,1.22
2019-05-09T16:29:28.489Z,0.60
2019-05-09T16:33:32.028Z,0.60
2019-05-09T16:37:56.800Z,0.50
2019-05-09T16:41:41.856Z,0.50
2019-05-09T16:45:47.639Z,0.40
2019-05-09T16:49:52.300Z,0.35
2019-05-09T16:53:58.408Z,0.40
2019-05-09T16:58:02.173Z,0.40
2019-05-09T17:02:18.857Z,0.70
2019-05-09T17:06:12.305Z,1.60
2019-05-09T17:10:17.693Z,0.70
2019-05-09T17:14:22.003Z,0.30
2019-05-09T17:18:28.292Z,0.55
2019-05-09T17:22:51.420Z,0.50
2019-05-09T17:26:57.855Z,0.60
2019-05-09T17:31:01.563Z,0.60
2019-05-09T17:35:05.730Z,0.45
2019-05-09T17:39:09.893Z,0.33
2019-05-09T17:43:14.117Z,0.40
2019-05-09T17:47:18.413Z,0.40
2019-05-09T17:51:33.239Z,0.30
2019-05-09T17:55:29.576Z,0.50
2019-05-09T17:59:33.624Z,0.50
2019-05-09T18:03:38.558Z,0.47
2019-05-09T18:07:42.821Z,0.45
2019-05-09T18:11:48.308Z,0.40
2019-05-09T18:15:52.626Z,0.30
2019-05-09T18:19:58.428Z,0.30
2019-05-09T18:24:03.037Z,0.30
2019-05-09T18:28:07.330Z,0.20
2019-05-09T18:32:30.733Z,0.30
2019-05-09T18:36:38.023Z,0.30
2019-05-09T18:40:41.608Z,0.30
2019-05-09T18:44:47.636Z,0.30
2019-05-09T18:48:51.454Z,0.30
2019-05-09T18:52:55.661Z,0.50
2019-05-09T18:56:59.637Z,0.40
2019-05-09T19:01:03.744Z,0.47
2019-05-09T19:05:08.109Z,2.10
2019-05-09T19:09:12.176Z,1.00
2019-05-09T19:13:16.334Z,0.83
2019-05-09T19:17:36.946Z,0.90
2019-05-09T19:21:44.673Z,0.70
2019-05-09T19:25:48.812Z,0.60
2019-05-09T19:29:52.940Z,0.50
2019-05-09T19:33:57.166Z,0.50
2019-05-09T19:38:04.833Z,0.40
2019-05-09T19:42:08.933Z,0.40
2019-05-09T19:46:12.800Z,0.40
2019-05-09T19:50:17.024Z,0.47
2019-05-09T19:54:20.983Z,0.40
2019-05-09T19:58:25.188Z,0.30
2019-05-09T20:02:29.242Z,0.40
2019-05-09T20:06:33.430Z,0.50
2019-05-09T20:10:56.863Z,0.50
2019-05-09T20:15:00.960Z,0.47
2019-05-09T20:19:04.989Z,0.40
2019-05-09T20:23:09.060Z,0.50
2019-05-09T20:27:13.277Z,0.57
2019-05-09T20:31:17.314Z,0.40
2019-05-09T20:35:21.268Z,0.50
2019-05-09T20:39:25.615Z,0.50
2019-05-09T20:43:29.998Z,0.50
2019-05-09T20:47:34.407Z,0.57
2019-05-09T20:51:38.667Z,0.63
2019-05-09T20:55:42.879Z,0.50
2019-05-09T20:59:47.276Z,0.80
2019-05-09T21:04:00.164Z,1.20
2019-05-09T21:07:57.495Z,0.70
2019-05-09T21:12:01.731Z,0.60
2019-05-09T21:16:07.805Z,0.60
2019-05-09T21:20:12.166Z,0.50
2019-05-09T21:24:16.374Z,0.50
2019-05-09T21:28:20.666Z,0.70
2019-05-09T21:32:24.975Z,0.70
2019-05-09T21:36:28.967Z,0.70
2019-05-09T21:40:33.291Z,0.60
2019-05-09T21:44:37.337Z,0.73
2019-05-09T21:48:41.402Z,1.10
2019-05-09T21:52:45.502Z,0.90
2019-05-09T21:56:49.494Z,0.80
2019-05-09T22:00:55.252Z,0.90
2019-05-09T22:05:00.410Z,0.60
2019-05-09T22:09:07.832Z,0.90
2019-05-09T22:13:11.827Z,0.77
2019-05-09T22:17:22.010Z,0.90
2019-05-09T22:21:26.147Z,0.87
2019-05-09T22:25:30.304Z,0.90
2019-05-09T22:29:35.359Z,0.80
2019-05-09T22:33:39.601Z,0.80
2019-05-09T22:37:43.570Z,0.80
2019-05-09T22:41:47.597Z,2.13
2019-05-09T22:45:51.780Z,1.47
2019-05-09T22:49:55.820Z,1.00
2019-05-09T22:54:12.322Z,1.40
2019-05-09T22:58:06.120Z,1.10
2019-05-09T23:02:10.429Z,1.90
2019-05-09T23:06:15.436Z,1.40
2019-05-09T23:10:19.791Z,1.27
2019-05-09T23:14:24.092Z,1.30
2019-05-09T23:18:28.340Z,1.47
2019-05-09T23:22:32.811Z,1.30
2019-05-09T23:26:37.292Z,1.40
2019-05-09T23:30:41.430Z,1.10
2019-05-09T23:34:45.506Z,1.30
2019-05-09T23:39:08.791Z,1.27
2019-05-09T23:43:12.840Z,1.20
2019-05-09T23:47:16.964Z,0.90
2019-05-09T23:51:22.236Z,1.00
2019-05-09T23:55:45.474Z,1.00
